Time,TemperatureF,DewpointF,PressureIn,WindDirection,WindDirectionDegrees,WindSpeedMPH,WindSpeedGustMPH,Humidity,HourlyPrecipIn,Conditions,Clouds,dailyrainin,SolarRadiationWatts/m^2,SoftwareType,DateUTC
2013-02-22 00:21:00,22.0,18.0,-100.00,West,261,4.0,8.0,86,0.00,,,0.04,16.000000,,2013-02-22 00:21:00,
2013-02-22 00:32:00,22.0,18.0,-100.00,West,261,4.0,8.0,86,0.00,,,0.04,16.000000,,2013-02-22 00:32:00,
2013-02-22 00:42:00,22.0,18.0,-100.00,West,261,4.0,8.0,86,0.00,,,0.04,16.000000,,2013-02-22 00:42:00,
2013-02-22 00:51:00,22.0,18.0,-100.00,West,261,4.0,8.0,86,0.00,,,0.04,16.000000,,2013-02-22 00:51:00,
2013-02-22 01:21:00,20.0,18.0,-100.00,West,268,5.0,10.0,90,0.00,,,0.04,3.000000,,2013-02-22 01:21:00,
2013-02-22 01:32:00,20.0,18.0,-100.00,West,268,5.0,10.0,90,0.00,,,0.04,3.000000,,2013-02-22 01:32:00,
2013-02-22 01:42:00,20.0,18.0,-100.00,West,268,5.0,10.0,90,0.00,,,0.04,3.000000,,2013-02-22 01:42:00,
2013-02-22 01:51:00,20.0,18.0,-100.00,West,268,5.0,10.0,90,0.00,,,0.04,3.000000,,2013-02-22 01:51:00,
2013-02-22 02:21:00,19.0,17.0,-100.00,WNW,290,4.0,12.0,90,0.00,,,0.04,0.000000,,2013-02-22 02:21:00,
2013-02-22 02:32:00,19.0,17.0,-100.00,WNW,290,4.0,12.0,90,0.00,,,0.04,0.000000,,2013-02-22 02:32:00,
2013-02-22 02:42:00,19.0,17.0,-100.00,WNW,290,4.0,12.0,90,0.00,,,0.04,0.000000,,2013-02-22 02:42:00,
2013-02-22 02:52:00,19.0,17.0,-100.00,WNW,290,4.0,12.0,90,0.00,,,0.04,0.000000,,2013-02-22 02:52:00,
2013-02-22 03:21:00,19.0,16.0,-100.00,West,279,3.0,8.0,89,0.00,,,0.04,0.000000,,2013-02-22 03:21:00,
2013-02-22 03:32:00,19.0,16.0,-100.00,West,279,3.0,8.0,89,0.00,,,0.04,0.000000,,2013-02-22 03:32:00,
2013-02-22 03:42:00,19.0,16.0,-100.00,West,279,3.0,8.0,89,0.00,,,0.04,0.000000,,2013-02-22 03:42:00,
2013-02-22 03:51:00,19.0,16.0,-100.00,West,279,3.0,8.0,89,0.00,,,0.04,0.000000,,2013-02-22 03:51:00,
2013-02-22 04:11:00,18.0,15.0,-100.00,SSW,208,2.0,6.0,89,0.00,,,0.04,0.000000,,2013-02-22 04:11:00,
2013-02-22 04:21:00,18.0,15.0,-100.00,SSW,208,2.0,6.0,89,0.00,,,0.04,0.000000,,2013-02-22 04:21:00,
2013-02-22 04:32:00,18.0,15.0,-100.00,SSW,208,2.0,6.0,89,0.00,,,0.04,0.000000,,2013-02-22 04:32:00,
2013-02-22 04:42:00,18.0,15.0,-100.00,SSW,208,2.0,6.0,89,0.00,,,0.04,0.000000,,2013-02-22 04:42:00,
2013-02-22 04:51:00,18.0,15.0,-100.00,SSW,208,2.0,6.0,89,0.00,,,0.04,0.000000,,2013-02-22 04:51:00,
2013-02-22 05:22:00,19.0,16.0,-100.00,North,7,0.0,3.0,89,0.00,,,0.04,0.000000,,2013-02-22 05:22:00,
2013-02-22 05:32:00,19.0,16.0,-100.00,North,7,0.0,3.0,89,0.00,,,0.04,0.000000,,2013-02-22 05:32:00,
2013-02-22 05:42:00,19.0,16.0,-100.00,North,7,0.0,3.0,89,0.00,,,0.04,0.000000,,2013-02-22 05:42:00,
2013-02-22 05:52:00,19.0,16.0,-100.00,North,7,0.0,3.0,89,0.00,,,0.04,0.000000,,2013-02-22 05:52:00,
2013-02-22 06:22:00,19.0,16.0,-100.00,SW,235,1.0,3.0,89,0.00,,,0.04,0.000000,,2013-02-22 06:22:00,
2013-02-22 06:32:00,19.0,16.0,-100.00,SW,235,1.0,3.0,89,0.00,,,0.04,0.000000,,2013-02-22 06:32:00,
2013-02-22 06:42:00,19.0,16.0,-100.00,SW,235,1.0,3.0,89,0.00,,,0.04,0.000000,,2013-02-22 06:42:00,
2013-02-22 06:51:00,19.0,16.0,-100.00,SW,235,1.0,3.0,89,0.00,,,0.04,0.000000,,2013-02-22 06:51:00,
2013-02-22 07:21:00,19.0,17.0,-100.00,SSW,207,3.0,4.0,90,0.00,,,0.04,0.000000,,2013-02-22 07:21:00,
2013-02-22 07:31:00,19.0,17.0,-100.00,SSW,207,3.0,4.0,90,0.00,,,0.04,0.000000,,2013-02-22 07:31:00,
2013-02-22 07:42:00,19.0,17.0,-100.00,SSW,207,3.0,4.0,90,0.00,,,0.04,0.000000,,2013-02-22 07:42:00,
2013-02-22 07:51:00,19.0,17.0,-100.00,SSW,207,3.0,4.0,90,0.00,,,0.04,0.000000,,2013-02-22 07:51:00,
2013-02-22 08:21:00,19.0,17.0,-100.00,South,175,1.0,4.0,90,0.00,,,0.04,0.000000,,2013-02-22 08:21:00,
2013-02-22 08:31:00,19.0,17.0,-100.00,South,175,1.0,4.0,90,0.00,,,0.04,0.000000,,2013-02-22 08:31:00,
2013-02-22 08:42:00,19.0,17.0,-100.00,South,175,1.0,4.0,90,0.00,,,0.04,0.000000,,2013-02-22 08:42:00,
2013-02-22 08:52:00,19.0,17.0,-100.00,South,175,1.0,4.0,90,0.00,,,0.04,0.000000,,2013-02-22 08:52:00,
2013-02-22 09:21:00,19.0,16.0,-100.00,West,261,0.0,3.0,89,0.00,,,0.04,0.000000,,2013-02-22 09:21:00,
2013-02-22 09:32:00,19.0,16.0,-100.00,West,261,0.0,3.0,89,0.00,,,0.04,0.000000,,2013-02-22 09:32:00,
2013-02-22 09:42:00,19.0,16.0,-100.00,West,261,0.0,3.0,89,0.00,,,0.04,0.000000,,2013-02-22 09:42:00,
2013-02-22 09:51:00,19.0,16.0,-100.00,West,261,0.0,3.0,89,0.00,,,0.04,0.000000,,2013-02-22 09:51:00,
2013-02-22 10:21:00,19.0,16.0,-100.00,SSW,206,2.0,3.0,89,0.00,,,0.04,0.000000,,2013-02-22 10:21:00,
2013-02-22 10:32:00,19.0,16.0,-100.00,SSW,206,2.0,3.0,89,0.00,,,0.04,0.000000,,2013-02-22 10:32:00,
2013-02-22 10:42:00,19.0,16.0,-100.00,SSW,206,2.0,3.0,89,0.00,,,0.04,0.000000,,2013-02-22 10:42:00,
2013-02-22 10:51:00,19.0,16.0,-100.00,SSW,206,2.0,3.0,89,0.00,,,0.04,0.000000,,2013-02-22 10:51:00,
2013-02-22 11:21:00,19.0,16.0,-100.00,SW,227,1.0,3.0,89,0.00,,,0.04,0.000000,,2013-02-22 11:21:00,
2013-02-22 11:32:00,19.0,16.0,-100.00,SW,227,1.0,3.0,89,0.00,,,0.04,0.000000,,2013-02-22 11:32:00,
2013-02-22 11:42:00,19.0,16.0,-100.00,SW,227,1.0,3.0,89,0.00,,,0.04,0.000000,,2013-02-22 11:42:00,
2013-02-22 11:52:00,19.0,16.0,-100.00,SW,227,1.0,3.0,89,0.00,,,0.04,0.000000,,2013-02-22 11:52:00,
2013-02-22 12:22:00,19.0,16.0,-100.00,SSW,198,0.0,4.0,89,0.00,,,0.04,0.000000,,2013-02-22 12:22:00,
2013-02-22 12:32:00,19.0,16.0,-100.00,SSW,198,0.0,4.0,89,0.00,,,0.04,0.000000,,2013-02-22 12:32:00,
2013-02-22 12:42:00,19.0,16.0,-100.00,SSW,198,0.0,4.0,89,0.00,,,0.04,0.000000,,2013-02-22 12:42:00,
2013-02-22 12:52:00,19.0,16.0,-100.00,SSW,198,0.0,4.0,89,0.00,,,0.04,0.000000,,2013-02-22 12:52:00,
2013-02-22 13:22:00,19.0,16.0,-100.00,South,182,1.0,5.0,89,0.00,,,0.04,0.000000,,2013-02-22 13:22:00,
2013-02-22 13:32:00,19.0,16.0,-100.00,South,182,1.0,5.0,89,0.00,,,0.04,0.000000,,2013-02-22 13:32:00,
2013-02-22 13:42:00,19.0,16.0,-100.00,South,182,1.0,5.0,89,0.00,,,0.04,0.000000,,2013-02-22 13:42:00,
2013-02-22 13:52:00,19.0,16.0,-100.00,South,182,1.0,5.0,89,0.00,,,0.04,0.000000,,2013-02-22 13:52:00,
2013-02-22 14:21:00,19.0,16.0,-100.00,West,277,3.0,8.0,89,0.00,,,0.04,2.000000,,2013-02-22 14:21:00,
2013-02-22 14:32:00,19.0,16.0,-100.00,West,277,3.0,8.0,89,0.00,,,0.04,2.000000,,2013-02-22 14:32:00,
2013-02-22 14:42:00,19.0,16.0,-100.00,West,277,3.0,8.0,89,0.00,,,0.04,2.000000,,2013-02-22 14:42:00,
2013-02-22 14:52:00,19.0,16.0,-100.00,West,277,3.0,8.0,89,0.00,,,0.04,2.000000,,2013-02-22 14:52:00,
2013-02-22 15:21:00,21.0,18.0,-100.00,North,11,0.0,5.0,88,0.00,,,0.04,64.000000,,2013-02-22 15:21:00,
2013-02-22 15:32:00,21.0,18.0,-100.00,North,11,0.0,5.0,88,0.00,,,0.04,64.000000,,2013-02-22 15:32:00,
2013-02-22 15:42:00,21.0,18.0,-100.00,North,11,0.0,5.0,88,0.00,,,0.04,64.000000,,2013-02-22 15:42:00,
2013-02-22 15:52:00,21.0,18.0,-100.00,North,11,0.0,5.0,88,0.00,,,0.04,64.000000,,2013-02-22 15:52:00,
2013-02-22 16:22:00,26.0,23.0,-100.00,WSW,248,2.0,4.0,87,0.00,,,0.04,237.000000,,2013-02-22 16:22:00,
2013-02-22 16:32:00,26.0,23.0,-100.00,WSW,248,2.0,4.0,87,0.00,,,0.04,237.000000,,2013-02-22 16:32:00,
2013-02-22 16:42:00,26.0,23.0,-100.00,WSW,248,2.0,4.0,87,0.00,,,0.04,237.000000,,2013-02-22 16:42:00,
2013-02-22 16:52:00,26.0,23.0,-100.00,WSW,248,2.0,4.0,87,0.00,,,0.04,237.000000,,2013-02-22 16:52:00,
2013-02-22 17:21:00,29.0,22.0,-100.00,WNW,288,4.0,8.0,74,0.01,,,0.05,392.000000,,2013-02-22 17:21:00,
2013-02-22 17:32:00,29.0,22.0,-100.00,WNW,288,4.0,8.0,74,0.01,,,0.05,392.000000,,2013-02-22 17:32:00,
2013-02-22 17:42:00,29.0,22.0,-100.00,WNW,288,4.0,8.0,74,0.01,,,0.05,392.000000,,2013-02-22 17:42:00,
2013-02-22 17:52:00,29.0,22.0,-100.00,WNW,288,4.0,8.0,74,0.01,,,0.05,392.000000,,2013-02-22 17:52:00,
2013-02-22 18:22:00,31.0,19.0,-100.00,West,274,4.0,12.0,61,0.00,,,0.02,598.000000,,2013-02-22 18:22:00,
2013-02-22 18:32:00,31.0,19.0,-100.00,West,274,4.0,12.0,61,0.00,,,0.02,598.000000,,2013-02-22 18:32:00,
2013-02-22 18:42:00,31.0,19.0,-100.00,West,274,4.0,12.0,61,0.00,,,0.02,598.000000,,2013-02-22 18:42:00,
2013-02-22 18:51:00,31.0,19.0,-100.00,West,274,4.0,12.0,61,0.00,,,0.02,598.000000,,2013-02-22 18:51:00,
2013-02-22 19:11:00,34.0,20.0,-100.00,WNW,296,7.0,15.0,55,0.00,,,0.02,678.000000,,2013-02-22 19:11:00,
2013-02-22 19:21:00,34.0,20.0,-100.00,WNW,296,7.0,15.0,55,0.00,,,0.02,678.000000,,2013-02-22 19:21:00,
2013-02-22 19:31:00,34.0,20.0,-100.00,WNW,296,7.0,15.0,55,0.00,,,0.02,678.000000,,2013-02-22 19:31:00,
2013-02-22 19:41:00,34.0,20.0,-100.00,WNW,296,7.0,15.0,55,0.00,,,0.02,678.000000,,2013-02-22 19:41:00,
2013-02-22 19:52:00,34.0,20.0,-100.00,WNW,296,7.0,15.0,55,0.00,,,0.02,678.000000,,2013-02-22 19:52:00,
2013-02-22 20:21:00,36.0,16.0,-100.00,NW,307,8.0,20.0,44,0.00,,,0.02,696.000000,,2013-02-22 20:21:00,
2013-02-22 20:32:00,36.0,16.0,-100.00,NW,307,8.0,20.0,44,0.00,,,0.02,696.000000,,2013-02-22 20:32:00,
2013-02-22 20:41:00,36.0,16.0,-100.00,NW,307,8.0,20.0,44,0.00,,,0.02,696.000000,,2013-02-22 20:41:00,
2013-02-22 20:52:00,36.0,16.0,-100.00,NW,307,8.0,20.0,44,0.00,,,0.02,696.000000,,2013-02-22 20:52:00,
2013-02-22 21:21:00,35.0,14.0,-100.00,WNW,303,8.0,17.0,41,0.00,,,0.01,419.000000,,2013-02-22 21:21:00,
2013-02-22 21:32:00,35.0,14.0,-100.00,WNW,303,8.0,17.0,41,0.00,,,0.01,419.000000,,2013-02-22 21:32:00,
2013-02-22 21:42:00,35.0,14.0,-100.00,WNW,303,8.0,17.0,41,0.00,,,0.01,419.000000,,2013-02-22 21:42:00,
2013-02-22 21:52:00,35.0,14.0,-100.00,WNW,303,8.0,17.0,41,0.00,,,0.01,419.000000,,2013-02-22 21:52:00,
2013-02-22 22:21:00,36.0,13.0,-100.00,NW,311,6.0,17.0,39,0.00,,,0.01,283.000000,,2013-02-22 22:21:00,
2013-02-22 22:31:00,36.0,13.0,-100.00,NW,311,6.0,17.0,39,0.00,,,0.01,283.000000,,2013-02-22 22:31:00,
2013-02-22 22:42:00,36.0,13.0,-100.00,NW,311,6.0,17.0,39,0.00,,,0.01,283.000000,,2013-02-22 22:42:00,
2013-02-22 22:51:00,36.0,13.0,-100.00,NW,311,6.0,17.0,39,0.00,,,0.01,283.000000,,2013-02-22 22:51:00,
2013-02-22 23:21:00,36.0,16.0,-100.00,NW,320,4.0,16.0,44,0.00,,,0.01,99.000000,,2013-02-22 23:21:00,
2013-02-22 23:31:00,36.0,16.0,-100.00,NW,320,4.0,16.0,44,0.00,,,0.01,99.000000,,2013-02-22 23:31:00,
2013-02-22 23:41:00,36.0,16.0,-100.00,NW,320,4.0,16.0,44,0.00,,,0.01,99.000000,,2013-02-22 23:41:00,
2013-02-22 23:52:00,36.0,16.0,-100.00,NW,320,4.0,16.0,44,0.00,,,0.01,99.000000,,2013-02-22 23:52:00,